Time;durP1;ratioP1;P1;durP2;ratioP2;P2;SDS_P1;SDS_P2;PMS_P1;PMS_P2;Temp;Humidity;BMP_temperature;BMP_pressure;BME280_temperature;BME280_humidity;BME280_pressure;Samples;Min_cycle;Max_cycle;Signal;HPM_P1;HPM_P2
2022/08/20 00:02:16;;;;;;;1.60;1.50;;;24.50;99.90;;;;;;6209572;28;83942;-67
2022/08/20 00:05:24;;;;;;;1.52;1.42;;;24.50;99.90;;;;;;6195518;28;83974;-67
2022/08/20 00:08:27;;;;;;;1.42;1.33;;;24.50;99.90;;;;;;6212606;28;85005;-67
2022/08/20 00:11:32;;;;;;;1.60;1.50;;;24.50;99.90;;;;;;6208528;28;82859;-67
2022/08/20 00:14:35;;;;;;;1.50;1.40;;;24.50;99.90;;;;;;6194511;28;84000;-67
2022/08/20 00:17:37;;;;;;;1.52;1.42;;;24.50;99.90;;;;;;6210586;28;82950;-67
2022/08/20 00:20:42;;;;;;;1.30;1.20;;;24.50;99.90;;;;;;6203264;28;83961;-67
2022/08/20 00:23:47;;;;;;;1.55;1.38;;;24.50;99.90;;;;;;6210870;28;84383;-67
2022/08/20 00:26:49;;;;;;;1.58;1.48;;;24.50;99.90;;;;;;6211101;28;84415;-67
2022/08/20 00:29:51;;;;;;;1.45;1.30;;;24.40;99.90;;;;;;6193506;28;83296;-67
2022/08/20 00:32:58;;;;;;;1.50;1.40;;;24.40;99.90;;;;;;6219958;28;84074;-67
2022/08/20 00:36:05;;;;;;;1.10;1.02;;;24.40;99.90;;;;;;6204401;28;84027;-67
2022/08/20 00:39:08;;;;;;;1.10;1.00;;;24.40;99.90;;;;;;6214736;28;83957;-67
2022/08/20 00:42:11;;;;;;;1.20;1.10;;;24.40;99.90;;;;;;6197967;28;82984;-67
2022/08/20 00:45:14;;;;;;;1.10;1.00;;;24.40;99.90;;;;;;6222766;28;83025;-67
2022/08/20 00:48:16;;;;;;;1.38;1.27;;;24.40;99.90;;;;;;6215310;28;82899;-67
2022/08/20 00:51:26;;;;;;;1.05;1.00;;;24.40;99.90;;;;;;6210070;28;84034;-67
2022/08/20 00:54:37;;;;;;;1.67;0.98;;;24.40;99.90;;;;;;6211263;28;84393;-67
2022/08/20 00:57:44;;;;;;;1.38;0.90;;;24.40;99.90;;;;;;6189681;28;83169;-67
2022/08/20 01:00:48;;;;;;;2.17;1.10;;;24.40;99.90;;;;;;6208112;28;83269;-67
2022/08/20 01:03:54;;;;;;;0.80;0.80;;;24.40;99.90;;;;;;6204152;28;84268;-67
2022/08/20 01:06:56;;;;;;;1.10;1.00;;;24.40;99.90;;;;;;6209319;28;84101;-67
2022/08/20 01:10:01;;;;;;;1.20;1.10;;;24.40;99.90;;;;;;6208889;28;84949;-67
2022/08/20 01:13:08;;;;;;;1.20;1.10;;;24.30;99.90;;;;;;6214690;28;84019;-67
2022/08/20 01:16:18;;;;;;;1.23;1.00;;;24.40;99.90;;;;;;6220887;28;83963;-67
2022/08/20 01:19:25;;;;;;;0.90;0.90;;;24.30;99.90;;;;;;6219517;28;84070;-67
2022/08/20 01:26:12;;;;;;;1.00;1.00;;;24.30;99.90;;;;;;6192183;28;82526;-67
2022/08/20 01:29:17;;;;;;;0.90;0.90;;;24.30;99.90;;;;;;6211285;28;84224;-67
2022/08/20 01:32:19;;;;;;;0.90;0.90;;;24.40;99.90;;;;;;6215746;28;83709;-67
2022/08/20 01:35:23;;;;;;;0.90;0.90;;;24.40;99.90;;;;;;6207388;28;84096;-67
2022/08/20 01:38:25;;;;;;;1.27;0.93;;;24.40;99.90;;;;;;6216470;28;84622;-66
2022/08/20 01:41:45;;;;;;;1.00;1.00;;;24.40;99.90;;;;;;6215601;28;85273;-67
2022/08/20 01:44:48;;;;;;;1.50;1.00;;;24.40;99.90;;;;;;6187642;28;83629;-67
2022/08/20 01:47:50;;;;;;;1.17;1.00;;;24.30;99.90;;;;;;6212869;28;83897;-67
2022/08/20 01:51:01;;;;;;;1.48;1.02;;;24.40;99.90;;;;;;6196640;28;83911;-67
2022/08/20 01:54:04;;;;;;;1.38;1.00;;;24.40;99.90;;;;;;6196893;28;83961;-67
2022/08/20 01:57:12;;;;;;;1.70;1.00;;;24.40;99.90;;;;;;6208775;28;84033;-67
2022/08/20 02:00:17;;;;;;;1.35;1.25;;;24.40;99.90;;;;;;6201007;28;84078;-67
2022/08/20 02:03:19;;;;;;;1.73;1.30;;;24.40;99.90;;;;;;6191795;28;83331;-67
2022/08/20 02:06:24;;;;;;;1.10;1.10;;;24.40;99.90;;;;;;6206360;28;83699;-67
2022/08/20 02:09:28;;;;;;;1.30;0.90;;;24.40;99.90;;;;;;6197757;28;84107;-67
2022/08/20 02:12:31;;;;;;;2.42;1.10;;;24.30;99.90;;;;;;6205607;28;84950;-67
2022/08/20 02:15:33;;;;;;;1.25;1.15;;;24.30;99.90;;;;;;6190929;28;84634;-67
2022/08/20 02:18:36;;;;;;;1.20;1.10;;;24.30;99.90;;;;;;6193605;28;83991;-67
2022/08/20 02:21:43;;;;;;;1.50;1.40;;;24.30;99.90;;;;;;6200477;28;83061;-67
2022/08/20 02:24:45;;;;;;;1.30;1.20;;;24.30;99.90;;;;;;6216358;28;84269;-67
2022/08/20 02:27:50;;;;;;;0.93;0.93;;;24.30;99.90;;;;;;6215952;28;84365;-67
2022/08/20 02:30:55;;;;;;;1.95;1.10;;;24.30;99.90;;;;;;6203471;28;84486;-67
2022/08/20 02:33:57;;;;;;;1.60;1.13;;;24.30;99.90;;;;;;6205372;28;83462;-67
2022/08/20 02:36:59;;;;;;;1.23;1.10;;;24.30;99.90;;;;;;6209921;28;84080;-67
2022/08/20 02:40:01;;;;;;;1.48;1.10;;;24.30;99.90;;;;;;6196467;28;84607;-67
2022/08/20 02:43:05;;;;;;;1.15;0.90;;;24.30;99.90;;;;;;6201632;28;85155;-67
2022/08/20 02:46:07;;;;;;;1.42;1.00;;;24.30;99.90;;;;;;6208711;28;84566;-67
2022/08/20 02:49:10;;;;;;;1.02;0.93;;;24.30;99.90;;;;;;6208018;28;84013;-67
2022/08/20 02:52:12;;;;;;;0.90;0.90;;;24.30;99.90;;;;;;6211779;28;84328;-67
2022/08/20 02:55:15;;;;;;;1.20;1.00;;;24.30;99.90;;;;;;6200205;28;83536;-67
2022/08/20 02:58:20;;;;;;;1.25;1.15;;;24.30;99.90;;;;;;6193473;28;84163;-67
2022/08/20 03:01:22;;;;;;;1.92;0.95;;;24.30;99.90;;;;;;6190626;28;84989;-67
2022/08/20 03:04:24;;;;;;;1.90;1.10;;;24.30;99.90;;;;;;6218696;28;83321;-66
2022/08/20 03:07:26;;;;;;;1.02;0.93;;;24.30;99.90;;;;;;6206811;28;84280;-67
2022/08/20 03:10:31;;;;;;;0.85;0.85;;;24.30;99.90;;;;;;6211968;28;84579;-67
2022/08/20 03:13:34;;;;;;;1.00;0.90;;;24.30;99.90;;;;;;6204451;28;85305;-67
2022/08/20 03:16:36;;;;;;;1.00;0.90;;;24.30;99.90;;;;;;6209609;28;82923;-67
2022/08/20 03:19:38;;;;;;;0.82;0.80;;;24.40;99.90;;;;;;6204789;28;84043;-67
2022/08/20 03:22:40;;;;;;;1.20;0.90;;;24.30;99.90;;;;;;6199755;28;84220;-67
2022/08/20 03:25:42;;;;;;;1.80;1.00;;;24.30;99.90;;;;;;6216083;28;84014;-67
2022/08/20 03:28:46;;;;;;;1.25;1.15;;;24.30;99.90;;;;;;6214309;28;84023;-67
2022/08/20 03:31:48;;;;;;;1.10;1.00;;;24.30;99.90;;;;;;6212635;28;84076;-67
2022/08/20 03:34:50;;;;;;;1.20;1.10;;;24.30;99.90;;;;;;6217594;28;83842;-67
2022/08/20 03:37:53;;;;;;;1.20;1.10;;;24.30;99.90;;;;;;6209606;28;83289;-67
2022/08/20 03:40:55;;;;;;;1.13;1.00;;;24.30;99.90;;;;;;6218440;28;83804;-67
2022/08/20 03:43:59;;;;;;;1.13;1.02;;;24.30;99.90;;;;;;6186400;28;84948;-67
2022/08/20 03:47:06;;;;;;;1.08;1.00;;;24.30;99.90;;;;;;6202465;28;84293;-67
2022/08/20 03:50:10;;;;;;;0.80;0.80;;;24.30;99.90;;;;;;6206742;28;83925;-67
2022/08/20 03:53:13;;;;;;;1.10;1.00;;;24.40;99.90;;;;;;6213410;28;84113;-67
2022/08/20 03:56:16;;;;;;;1.08;0.98;;;24.30;99.90;;;;;;6205840;28;84019;-67
2022/08/20 03:59:19;;;;;;;1.20;1.10;;;24.30;99.90;;;;;;6199155;28;83346;-67
2022/08/20 04:02:21;;;;;;;1.00;1.00;;;24.30;99.90;;;;;;6208287;28;84054;-67
2022/08/20 04:05:24;;;;;;;1.27;1.17;;;24.40;99.90;;;;;;6193788;28;83290;-67
2022/08/20 04:08:29;;;;;;;2.30;1.20;;;24.30;99.90;;;;;;6217380;28;82961;-67
2022/08/20 04:11:32;;;;;;;1.17;1.10;;;24.30;99.90;;;;;;6210445;28;85884;-67
2022/08/20 04:14:35;;;;;;;1.00;1.00;;;24.30;99.90;;;;;;6187189;28;85141;-67
2022/08/20 04:17:40;;;;;;;1.00;1.00;;;24.30;99.90;;;;;;6193074;28;83454;-67
2022/08/20 04:20:43;;;;;;;1.65;1.00;;;24.30;99.90;;;;;;6207134;28;84206;-67
2022/08/20 04:23:45;;;;;;;1.08;0.93;;;24.30;99.90;;;;;;6221646;28;84391;-67
2022/08/20 04:26:47;;;;;;;0.98;0.98;;;24.30;99.90;;;;;;6224162;28;84006;-67
2022/08/20 04:29:50;;;;;;;1.15;1.08;;;24.30;99.90;;;;;;6210463;28;84024;-66
2022/08/20 04:32:53;;;;;;;0.80;0.80;;;24.30;99.90;;;;;;6195228;28;81999;-67
2022/08/20 04:35:59;;;;;;;0.98;0.95;;;24.30;99.90;;;;;;6218529;28;83365;-67
2022/08/20 04:39:01;;;;;;;0.90;0.90;;;24.30;99.90;;;;;;6217622;28;83800;-67
2022/08/20 04:42:03;;;;;;;1.30;1.20;;;24.30;99.90;;;;;;6200741;28;84392;-67
2022/08/20 04:45:08;;;;;;;1.33;1.05;;;24.30;99.90;;;;;;6196545;28;84931;-67
2022/08/20 04:48:10;;;;;;;1.00;1.00;;;24.30;99.90;;;;;;6191890;28;83881;-67
2022/08/20 04:51:13;;;;;;;1.10;1.00;;;24.30;99.90;;;;;;6193886;28;84040;-67
2022/08/20 04:54:15;;;;;;;0.90;0.90;;;24.30;99.90;;;;;;6209200;28;83995;-67
2022/08/20 04:57:17;;;;;;;1.30;1.20;;;24.20;99.90;;;;;;6211304;28;83993;-68
2022/08/20 05:00:21;;;;;;;1.13;1.02;;;24.20;99.90;;;;;;6207774;28;84456;-67
2022/08/20 05:03:23;;;;;;;1.00;1.00;;;24.20;99.90;;;;;;6197370;28;84023;-68
2022/08/20 05:06:28;;;;;;;0.90;0.90;;;24.20;99.90;;;;;;6205087;28;83100;-68
2022/08/20 05:09:31;;;;;;;0.90;0.90;;;24.20;99.90;;;;;;6209955;28;82931;-67
2022/08/20 05:12:33;;;;;;;0.93;0.80;;;24.20;99.90;;;;;;6213472;28;83677;-67
2022/08/20 05:15:38;;;;;;;0.77;0.77;;;24.10;99.90;;;;;;6203040;28;84939;-67
2022/08/20 05:18:43;;;;;;;1.08;0.98;;;24.20;99.90;;;;;;6206592;28;84039;-67
2022/08/20 05:21:45;;;;;;;0.90;0.90;;;24.10;99.90;;;;;;6198896;28;84165;-67
2022/08/20 05:24:47;;;;;;;1.00;1.00;;;24.10;99.90;;;;;;6208163;28;84193;-67
2022/08/20 05:27:49;;;;;;;0.90;0.90;;;24.00;99.90;;;;;;6209054;28;84195;-68
2022/08/20 05:30:53;;;;;;;1.65;0.82;;;24.00;99.90;;;;;;6201335;28;84047;-69
2022/08/20 05:33:56;;;;;;;1.40;0.95;;;24.00;99.90;;;;;;6201229;28;84096;-68
2022/08/20 05:36:59;;;;;;;1.15;1.05;;;24.00;99.90;;;;;;6213591;28;82555;-68
2022/08/20 05:40:02;;;;;;;1.05;1.00;;;24.00;99.90;;;;;;6206382;28;84156;-68
2022/08/20 05:43:04;;;;;;;1.27;1.10;;;24.00;99.90;;;;;;6222300;28;83377;-68
2022/08/20 05:46:08;;;;;;;1.63;1.30;;;24.10;99.90;;;;;;6192329;28;84998;-68
2022/08/20 05:49:12;;;;;;;1.48;1.13;;;24.10;99.90;;;;;;6201604;28;84318;-66
2022/08/20 05:52:14;;;;;;;5.95;1.30;;;24.00;99.90;;;;;;6201761;28;86790;-67
2022/08/20 05:55:16;;;;;;;5.13;1.40;;;24.00;99.90;;;;;;6202249;28;84039;-67
2022/08/20 05:58:21;;;;;;;2.45;1.33;;;24.10;99.90;;;;;;6201014;28;84012;-67
2022/08/20 06:01:24;;;;;;;1.77;1.40;;;24.10;99.90;;;;;;6213805;28;84081;-67
2022/08/20 06:04:26;;;;;;;2.55;1.30;;;24.00;99.90;;;;;;6196865;28;82880;-67
2022/08/20 06:07:28;;;;;;;1.60;1.30;;;24.10;99.90;;;;;;6207491;28;83390;-67
2022/08/20 06:10:30;;;;;;;2.53;1.50;;;24.10;99.90;;;;;;6214910;28;83965;-68
2022/08/20 06:13:33;;;;;;;1.88;1.50;;;24.10;99.90;;;;;;6200410;28;84048;-68
2022/08/20 06:16:36;;;;;;;2.00;1.50;;;24.10;99.90;;;;;;6209747;28;85814;-67
2022/08/20 06:19:39;;;;;;;1.70;1.48;;;24.10;99.90;;;;;;6212790;28;84006;-68
2022/08/20 06:22:41;;;;;;;1.52;1.40;;;24.10;99.90;;;;;;6223840;28;84025;-67
2022/08/20 06:25:43;;;;;;;1.75;1.52;;;24.10;99.90;;;;;;6219663;28;84317;-67
2022/08/20 06:28:45;;;;;;;1.50;1.40;;;24.10;99.90;;;;;;6209967;28;84278;-67
2022/08/20 06:31:48;;;;;;;1.50;1.40;;;24.20;99.90;;;;;;6197535;28;84022;-67
2022/08/20 06:34:51;;;;;;;2.05;1.40;;;24.20;99.90;;;;;;6214311;28;84100;-68
2022/08/20 06:37:56;;;;;;;1.58;1.48;;;24.10;99.90;;;;;;6194243;28;83643;-67
2022/08/20 06:40:58;;;;;;;1.50;1.40;;;24.10;99.90;;;;;;6193114;28;84561;-68
2022/08/20 06:44:00;;;;;;;2.60;1.40;;;24.10;99.90;;;;;;6197047;28;84027;-67
2022/08/20 06:47:04;;;;;;;1.70;1.58;;;24.20;99.90;;;;;;6199597;28;84993;-68
2022/08/20 06:50:08;;;;;;;1.67;1.58;;;24.10;99.90;;;;;;6200726;28;84120;-68
2022/08/20 06:53:13;;;;;;;1.60;1.50;;;24.20;99.90;;;;;;6213334;28;84057;-67
2022/08/20 06:56:15;;;;;;;1.70;1.60;;;24.10;99.90;;;;;;6216978;28;83939;-67
2022/08/20 06:59:17;;;;;;;1.80;1.70;;;24.20;99.90;;;;;;6212414;28;84066;-67
2022/08/20 07:02:23;;;;;;;1.75;1.60;;;24.20;99.90;;;;;;6196746;28;84077;-67
2022/08/20 07:05:25;;;;;;;1.70;1.60;;;24.20;99.90;;;;;;6197598;28;84056;-67
2022/08/20 07:08:28;;;;;;;2.60;1.83;;;24.20;99.90;;;;;;6198668;28;83305;-67
2022/08/20 07:11:30;;;;;;;3.38;2.53;;;24.20;99.90;;;;;;6191628;28;83020;-67
2022/08/20 07:14:32;;;;;;;2.00;1.90;;;24.20;99.90;;;;;;6191629;28;83986;-67
2022/08/20 07:17:36;;;;;;;2.83;2.03;;;24.20;99.90;;;;;;6210847;28;84985;-67
2022/08/20 07:20:39;;;;;;;2.80;2.25;;;24.20;99.90;;;;;;6203500;28;84073;-67
2022/08/20 07:23:41;;;;;;;4.07;2.40;;;24.10;99.90;;;;;;6195575;28;84089;-67
2022/08/20 07:26:43;;;;;;;2.90;2.03;;;24.20;99.90;;;;;;6220750;28;84055;-67
2022/08/20 07:33:07;;;;;;;4.57;2.58;;;24.20;99.90;;;;;;6189321;28;82124;-67
2022/08/20 07:36:10;;;;;;;2.35;2.03;;;24.10;99.90;;;;;;6193133;28;85491;-67
2022/08/20 07:39:12;;;;;;;2.10;1.90;;;24.20;99.90;;;;;;6188302;28;83316;-67
2022/08/20 07:42:14;;;;;;;2.42;2.22;;;24.20;99.90;;;;;;6195608;28;84330;-67
2022/08/20 07:45:18;;;;;;;2.58;2.28;;;24.10;99.90;;;;;;6192905;28;84041;-67
2022/08/20 07:48:23;;;;;;;2.30;2.10;;;24.10;99.90;;;;;;6192030;28;84920;-67
2022/08/20 07:51:25;;;;;;;5.35;2.80;;;24.10;99.90;;;;;;6196947;28;84236;-67
2022/08/20 07:54:27;;;;;;;3.85;2.05;;;24.10;99.90;;;;;;6191236;28;84240;-67
2022/08/20 07:57:30;;;;;;;4.65;2.60;;;24.10;99.90;;;;;;6197892;28;84113;-67
2022/08/20 08:00:32;;;;;;;10.93;3.53;;;24.10;99.90;;;;;;6204958;28;84196;-67
2022/08/20 08:03:36;;;;;;;9.38;4.45;;;24.10;99.90;;;;;;6185324;28;84118;-67
2022/08/20 08:06:44;;;;;;;27.45;7.63;;;24.10;99.90;;;;;;6197190;28;84017;-68
2022/08/20 08:09:47;;;;;;;27.98;8.48;;;24.10;99.90;;;;;;6202735;28;83573;-67
2022/08/20 08:12:52;;;;;;;24.33;8.05;;;24.00;99.90;;;;;;6196186;28;83639;-67
2022/08/20 08:15:57;;;;;;;21.17;8.05;;;24.00;99.90;;;;;;6189916;28;83977;-68
2022/08/20 08:19:01;;;;;;;20.40;8.00;;;24.00;99.90;;;;;;6200497;28;84762;-67
2022/08/20 08:22:04;;;;;;;21.30;8.30;;;24.00;99.90;;;;;;6194497;28;82917;-67
2022/08/20 08:25:07;;;;;;;13.80;5.32;;;24.00;99.90;;;;;;6206291;28;84087;-67
2022/08/20 08:28:10;;;;;;;11.45;5.28;;;24.10;99.90;;;;;;6185804;28;84130;-67
2022/08/20 08:31:13;;;;;;;11.60;4.65;;;24.00;99.90;;;;;;6196419;28;85403;-67
2022/08/20 08:34:16;;;;;;;16.20;5.60;;;24.00;99.90;;;;;;6186163;28;84577;-67
2022/08/20 08:37:18;;;;;;;27.20;8.15;;;24.00;99.90;;;;;;6187713;28;84074;-67
2022/08/20 08:40:21;;;;;;;21.70;7.63;;;24.00;99.90;;;;;;6197910;28;83658;-67
2022/08/20 08:43:26;;;;;;;33.47;11.75;;;24.00;99.90;;;;;;6198116;28;84047;-67
2022/08/20 08:46:32;;;;;;;23.40;8.85;;;24.00;99.90;;;;;;6183693;28;83853;-67
2022/08/20 08:49:36;;;;;;;14.13;6.35;;;23.90;99.90;;;;;;6195825;28;85233;-67
2022/08/20 08:52:40;;;;;;;9.60;4.85;;;24.00;99.90;;;;;;6185567;28;84078;-67
2022/08/20 08:55:42;;;;;;;7.80;4.88;;;23.90;99.90;;;;;;6196614;28;84307;-67
2022/08/20 08:58:45;;;;;;;8.05;4.80;;;24.00;99.90;;;;;;6195699;28;84045;-67
2022/08/20 09:01:50;;;;;;;6.43;4.47;;;24.00;99.90;;;;;;6188311;28;84296;-67
2022/08/20 09:04:55;;;;;;;5.57;4.30;;;23.90;99.90;;;;;;6201321;28;84079;-67
2022/08/20 09:07:59;;;;;;;4.72;3.60;;;23.90;99.90;;;;;;6197322;28;84319;-67
2022/08/20 09:11:03;;;;;;;4.75;3.92;;;24.00;99.90;;;;;;6201031;28;82221;-67
2022/08/20 09:14:05;;;;;;;3.60;3.25;;;24.00;99.90;;;;;;6203141;28;84008;-67
2022/08/20 09:17:07;;;;;;;4.68;3.50;;;24.00;99.90;;;;;;6188055;28;84025;-67
2022/08/20 09:20:11;;;;;;;4.40;3.40;;;23.90;99.90;;;;;;6206749;28;84972;-67
2022/08/20 09:23:13;;;;;;;3.55;3.25;;;23.90;99.90;;;;;;6207171;28;84374;-67
2022/08/20 09:26:15;;;;;;;3.55;3.25;;;23.90;99.90;;;;;;6195543;28;84064;-67
2022/08/20 09:29:17;;;;;;;3.90;3.30;;;23.90;99.90;;;;;;6195328;28;82967;-67
2022/08/20 09:32:23;;;;;;;3.42;3.13;;;23.90;99.90;;;;;;6208662;28;84032;-67
2022/08/20 09:35:26;;;;;;;3.47;3.17;;;23.90;99.90;;;;;;6197954;28;84039;-67
2022/08/20 09:38:28;;;;;;;3.55;3.25;;;23.90;99.90;;;;;;6182752;28;84008;-67
2022/08/20 09:41:31;;;;;;;3.65;3.30;;;23.90;99.90;;;;;;6192971;28;83426;-67
2022/08/20 09:44:33;;;;;;;3.22;2.92;;;23.90;99.90;;;;;;6189370;28;84164;-67
2022/08/20 09:47:34;;;;;;;3.30;3.00;;;23.90;99.90;;;;;;6200261;28;84156;-67
2022/08/20 09:50:43;;;;;;;4.18;3.20;;;23.90;99.90;;;;;;6204389;28;84976;-67
2022/08/20 09:53:46;;;;;;;3.50;3.13;;;23.90;99.90;;;;;;6183039;28;82901;-67
2022/08/20 09:56:48;;;;;;;3.85;3.45;;;24.00;99.90;;;;;;6197084;28;83395;-67
2022/08/20 09:59:55;;;;;;;3.35;3.05;;;23.90;99.90;;;;;;6192982;28;84038;-67
2022/08/20 10:02:59;;;;;;;3.20;2.90;;;24.00;99.90;;;;;;6201347;28;84141;-67
2022/08/20 10:06:03;;;;;;;3.45;3.08;;;24.00;99.90;;;;;;6206228;28;83899;-67
2022/08/20 10:09:05;;;;;;;3.90;3.17;;;24.00;99.90;;;;;;6194668;28;84065;-67
2022/08/20 10:12:07;;;;;;;3.60;3.30;;;24.00;99.90;;;;;;6194153;28;83593;-67
2022/08/20 10:15:10;;;;;;;4.28;3.35;;;24.00;99.90;;;;;;6205157;28;83894;-67
2022/08/20 10:18:12;;;;;;;3.97;3.30;;;24.00;99.90;;;;;;6194946;28;84092;-67
2022/08/20 10:21:17;;;;;;;4.07;3.78;;;23.90;99.90;;;;;;6190819;28;84933;-68
2022/08/20 10:24:19;;;;;;;3.83;3.53;;;24.00;99.90;;;;;;6204024;28;84023;-67
2022/08/20 10:27:21;;;;;;;4.00;3.60;;;24.00;99.90;;;;;;6188391;28;84011;-67
2022/08/20 10:30:23;;;;;;;4.30;3.80;;;23.90;99.90;;;;;;6191414;28;84026;-68
2022/08/20 10:33:25;;;;;;;4.30;3.90;;;23.90;99.90;;;;;;6194198;28;84075;-68
2022/08/20 10:36:28;;;;;;;3.70;3.40;;;24.00;99.90;;;;;;6195554;28;84526;-68
2022/08/20 10:39:30;;;;;;;4.13;3.72;;;24.00;99.90;;;;;;6199508;28;83923;-67
2022/08/20 10:42:32;;;;;;;4.20;3.80;;;24.00;99.90;;;;;;6190725;28;83284;-67
2022/08/20 10:45:34;;;;;;;4.22;3.80;;;24.00;99.90;;;;;;6207753;28;84078;-67
2022/08/20 10:48:37;;;;;;;3.85;3.55;;;24.00;99.90;;;;;;6204192;28;82931;-67
2022/08/20 10:51:40;;;;;;;4.03;3.70;;;23.90;99.90;;;;;;6209806;28;85438;-68
2022/08/20 10:54:42;;;;;;;3.88;3.58;;;24.00;99.90;;;;;;6201161;28;84051;-68
2022/08/20 10:57:44;;;;;;;3.95;3.65;;;24.00;99.90;;;;;;6204213;28;83989;-67
2022/08/20 11:00:46;;;;;;;3.83;3.53;;;24.00;99.90;;;;;;6207081;28;84354;-67
2022/08/20 11:03:48;;;;;;;3.75;3.40;;;24.00;99.90;;;;;;6201468;28;84128;-67
2022/08/20 11:06:52;;;;;;;3.78;3.47;;;24.00;99.90;;;;;;6196467;28;84366;-67
2022/08/20 11:09:54;;;;;;;4.22;3.60;;;24.00;99.90;;;;;;6205851;28;84102;-67
2022/08/20 11:12:56;;;;;;;3.67;3.38;;;24.00;99.90;;;;;;6200520;28;83260;-68
2022/08/20 11:15:59;;;;;;;4.40;4.00;;;24.00;99.90;;;;;;6187785;28;84433;-67
2022/08/20 11:19:01;;;;;;;4.82;3.70;;;24.00;99.90;;;;;;6200801;28;84317;-68
2022/08/20 11:22:05;;;;;;;4.15;3.70;;;24.10;99.90;;;;;;6194154;28;85025;-68
2022/08/20 11:25:08;;;;;;;4.05;3.72;;;24.00;99.90;;;;;;6199165;28;84396;-68
2022/08/20 11:28:11;;;;;;;4.32;3.92;;;24.00;99.90;;;;;;6196001;28;84012;-67
2022/08/20 11:31:13;;;;;;;4.90;3.97;;;24.00;99.90;;;;;;6202108;28;82944;-67
2022/08/20 11:34:15;;;;;;;4.80;4.40;;;24.00;99.90;;;;;;6192166;28;84324;-67
2022/08/20 11:37:21;;;;;;;4.47;3.88;;;24.10;99.90;;;;;;6191199;28;84018;-67
2022/08/20 11:40:23;;;;;;;6.30;5.70;;;24.00;99.90;;;;;;6186882;28;84067;-67
2022/08/20 11:43:25;;;;;;;6.30;5.70;;;24.10;99.90;;;;;;6189053;28;83406;-67
2022/08/20 11:46:27;;;;;;;6.85;5.85;;;24.00;99.90;;;;;;6197021;28;83866;-67
2022/08/20 11:49:30;;;;;;;6.20;5.60;;;24.10;99.90;;;;;;6196795;28;84236;-67
2022/08/20 11:52:33;;;;;;;7.30;5.65;;;24.00;99.90;;;;;;6209074;28;84974;-68
2022/08/20 11:55:35;;;;;;;6.63;6.00;;;24.00;99.90;;;;;;6200380;28;82990;-67
2022/08/20 11:58:37;;;;;;;5.78;5.25;;;24.00;99.90;;;;;;6196684;28;82949;-67
2022/08/20 12:01:39;;;;;;;5.60;5.10;;;24.10;99.90;;;;;;6197598;28;83153;-67
2022/08/20 12:04:41;;;;;;;5.28;4.78;;;24.10;99.90;;;;;;6190841;28;84037;-67
2022/08/20 12:07:47;;;;;;;5.63;4.53;;;24.10;99.90;;;;;;6203986;28;84029;-67
2022/08/20 12:10:49;;;;;;;4.93;4.50;;;24.10;99.90;;;;;;6197402;28;84223;-67
2022/08/20 12:13:52;;;;;;;4.30;3.95;;;24.00;99.90;;;;;;6206562;28;84468;-67
2022/08/20 12:16:54;;;;;;;4.47;4.07;;;24.00;99.90;;;;;;6200529;28;84152;-67
2022/08/20 12:19:57;;;;;;;4.03;3.72;;;24.00;99.90;;;;;;6199813;28;84224;-67
2022/08/20 12:23:01;;;;;;;5.32;4.82;;;24.00;99.90;;;;;;6191608;28;86220;-67
2022/08/20 12:26:03;;;;;;;5.10;4.70;;;24.00;99.90;;;;;;6204415;28;84021;-67
2022/08/20 12:29:05;;;;;;;5.43;4.68;;;24.00;99.90;;;;;;6194867;28;84053;-67
2022/08/20 12:32:07;;;;;;;5.20;4.70;;;24.00;99.90;;;;;;6202808;28;84017;-67
2022/08/20 12:35:10;;;;;;;5.15;4.75;;;24.00;99.90;;;;;;6197945;28;84001;-67
2022/08/20 12:38:14;;;;;;;5.22;4.82;;;23.90;99.90;;;;;;6192843;28;82821;-67
2022/08/20 12:41:16;;;;;;;6.13;5.10;;;24.00;99.90;;;;;;6199303;28;84100;-67
2022/08/20 12:44:18;;;;;;;5.65;5.15;;;24.00;99.90;;;;;;6193650;28;83460;-67
2022/08/20 12:47:22;;;;;;;5.05;4.65;;;24.00;99.90;;;;;;6194512;28;84118;-67
2022/08/20 12:50:25;;;;;;;5.65;5.05;;;23.90;99.90;;;;;;6200122;28;83161;-67
2022/08/20 12:53:29;;;;;;;5.20;4.80;;;24.00;99.90;;;;;;6198724;28;84283;-67
2022/08/20 12:56:31;;;;;;;5.40;4.90;;;24.00;99.90;;;;;;6186765;28;83980;-67
2022/08/20 12:59:33;;;;;;;5.38;4.97;;;24.00;99.90;;;;;;6195762;28;84453;-67
2022/08/20 13:02:36;;;;;;;5.22;4.82;;;24.00;99.90;;;;;;6206697;28;84496;-67
2022/08/20 13:05:39;;;;;;;7.88;4.90;;;23.90;99.90;;;;;;6202735;28;84149;-67
2022/08/20 13:08:42;;;;;;;5.40;5.00;;;24.00;99.90;;;;;;6195821;28;83834;-68
2022/08/20 13:11:44;;;;;;;5.47;5.00;;;23.90;99.90;;;;;;6207655;28;83819;-67
2022/08/20 13:14:46;;;;;;;4.93;4.53;;;24.00;99.90;;;;;;6190580;28;83374;-67
2022/08/20 13:17:51;;;;;;;4.88;4.47;;;23.90;99.90;;;;;;6192268;28;84096;-67
2022/08/20 13:20:53;;;;;;;5.07;4.68;;;24.00;99.90;;;;;;6200682;28;84058;-68
2022/08/20 13:23:57;;;;;;;5.30;4.80;;;23.90;99.90;;;;;;6192323;28;84857;-68
2022/08/20 13:27:05;;;;;;;5.20;4.70;;;24.00;99.90;;;;;;6192142;28;83175;-68
2022/08/20 13:30:09;;;;;;;5.45;4.55;;;23.90;99.90;;;;;;6213161;28;84568;-68
2022/08/20 13:33:11;;;;;;;4.95;4.55;;;23.90;99.90;;;;;;6198725;28;83964;-68
2022/08/20 13:36:13;;;;;;;4.50;4.10;;;23.90;99.90;;;;;;6200634;28;84098;-68
2022/08/20 13:39:17;;;;;;;4.60;4.03;;;23.90;99.90;;;;;;6191596;28;83948;-68
2022/08/20 13:42:20;;;;;;;5.00;4.20;;;23.90;99.90;;;;;;6210639;28;82956;-68
2022/08/20 13:45:22;;;;;;;5.20;4.70;;;23.90;99.90;;;;;;6211249;28;82402;-67
2022/08/20 13:48:24;;;;;;;6.05;4.53;;;23.90;99.90;;;;;;6213772;28;84420;-67
2022/08/20 13:51:26;;;;;;;4.60;4.20;;;23.90;99.90;;;;;;6202607;28;84086;-67
2022/08/20 13:54:29;;;;;;;4.70;4.30;;;23.90;99.90;;;;;;6202029;28;85047;-67
2022/08/20 13:57:31;;;;;;;4.78;4.30;;;23.90;99.90;;;;;;6194809;28;83942;-67
2022/08/20 14:00:34;;;;;;;4.47;4.07;;;23.90;99.90;;;;;;6198465;28;84019;-67
2022/08/20 14:03:36;;;;;;;4.40;4.00;;;23.90;99.90;;;;;;6187197;28;83976;-66
2022/08/20 14:06:38;;;;;;;4.70;4.00;;;23.90;99.90;;;;;;6199429;28;83020;-67
2022/08/20 14:09:44;;;;;;;4.70;4.30;;;23.90;99.90;;;;;;6208993;28;84071;-67
2022/08/20 14:12:46;;;;;;;5.32;4.38;;;23.90;99.90;;;;;;6212174;28;82376;-67
2022/08/20 14:15:49;;;;;;;4.25;3.95;;;23.90;99.90;;;;;;6216944;28;83615;-66
2022/08/20 14:18:51;;;;;;;8.55;6.43;;;23.90;99.90;;;;;;6201126;28;83031;-66
2022/08/20 14:21:52;;;;;;;14.48;8.65;;;23.90;99.90;;;;;;6207116;28;84067;-67
2022/08/20 14:24:58;;;;;;;5.18;4.50;;;23.90;99.90;;;;;;6209684;28;85370;-67
2022/08/20 14:28:10;;;;;;;5.45;4.35;;;24.00;99.90;;;;;;6198269;28;82876;-67
2022/08/20 14:31:12;;;;;;;5.28;4.10;;;24.00;99.90;;;;;;6201916;28;82882;-68
2022/08/20 14:34:13;;;;;;;5.72;4.40;;;24.00;99.90;;;;;;6205431;28;82163;-67
2022/08/20 14:37:20;;;;;;;6.15;4.45;;;24.00;99.90;;;;;;6203561;28;83032;-67
2022/08/20 14:40:25;;;;;;;4.50;4.10;;;24.00;99.90;;;;;;6219909;28;84258;-67
2022/08/20 14:43:27;;;;;;;4.25;3.88;;;24.10;99.90;;;;;;6187982;28;83896;-67
2022/08/20 14:46:29;;;;;;;4.15;3.85;;;24.10;99.90;;;;;;6194927;28;83274;-66
2022/08/20 14:49:31;;;;;;;5.60;4.18;;;24.10;99.90;;;;;;6216476;28;83818;-67
2022/08/20 14:52:35;;;;;;;4.07;3.72;;;24.10;99.90;;;;;;6199208;28;84127;-67
2022/08/20 14:55:39;;;;;;;4.40;3.92;;;24.10;99.90;;;;;;6186453;28;85007;-67
2022/08/20 14:58:41;;;;;;;4.72;4.30;;;24.10;99.90;;;;;;6207809;28;84030;-67
2022/08/20 15:01:43;;;;;;;4.22;3.92;;;24.10;99.90;;;;;;6200518;28;85680;-66
2022/08/20 15:04:45;;;;;;;3.90;3.60;;;24.10;99.90;;;;;;6216891;28;84310;-66
2022/08/20 15:07:49;;;;;;;4.40;4.10;;;24.10;99.90;;;;;;6205222;28;83394;-67
2022/08/20 15:10:53;;;;;;;4.75;4.35;;;24.10;99.90;;;;;;6198023;28;84082;-67
2022/08/20 15:13:55;;;;;;;4.30;3.90;;;24.10;99.90;;;;;;6186943;28;84009;-66
2022/08/20 15:16:57;;;;;;;5.18;4.68;;;24.10;99.90;;;;;;6211847;28;83312;-66
2022/08/20 15:20:02;;;;;;;4.72;4.32;;;24.20;99.90;;;;;;6202851;28;84000;-66
2022/08/20 15:23:04;;;;;;;4.50;4.10;;;24.10;99.90;;;;;;6204889;28;84006;-66
2022/08/20 15:26:07;;;;;;;5.13;4.65;;;24.20;99.90;;;;;;6197388;28;85157;-66
2022/08/20 15:29:09;;;;;;;4.65;4.25;;;24.20;99.90;;;;;;6183974;28;83440;-66
2022/08/20 15:32:11;;;;;;;4.57;4.18;;;24.10;99.90;;;;;;6193608;28;84259;-67
2022/08/20 15:35:13;;;;;;;4.80;4.40;;;24.10;99.90;;;;;;6210260;28;84504;-66
2022/08/20 15:38:15;;;;;;;5.00;4.60;;;24.10;99.90;;;;;;6194001;28;84494;-66
2022/08/20 15:41:19;;;;;;;4.90;4.50;;;24.10;99.90;;;;;;6205476;28;84386;-66
2022/08/20 15:44:21;;;;;;;4.72;4.32;;;24.20;99.90;;;;;;6206017;28;84104;-65
2022/08/20 15:47:25;;;;;;;4.97;4.57;;;24.10;99.90;;;;;;6213004;28;82189;-66
2022/08/20 15:51:06;;;;;;;5.22;4.72;;;24.20;99.90;;;;;;6194320;28;84127;-66
2022/08/20 15:54:14;;;;;;;4.80;4.40;;;24.10;99.90;;;;;;6175938;28;84050;-65
2022/08/20 15:57:34;;;;;;;4.82;4.40;;;24.20;99.90;;;;;;6200690;28;85303;-65
2022/08/20 16:00:43;;;;;;;81.05;29.27;;;24.10;99.90;;;;;;6204147;28;83353;-67